Погода Сычикина 2 недели

Витебская область, Белоруссия

23 мая-04 июня
  • 23мая
    Сегодня
    +10°
    +24°
    Облачно с прояснениями
    ВремяПогодаТемператураВлажностьДавлениеВетер, м/сВероятность осадков
    00:00Практически безоблачно+15°C89 %751 мм3.3 м/с2 %
    03:00Ясно и безоблачно+14°C96 %752 мм3.0 м/с2 %
    06:00Ясно и безоблачно+14°C95 %752 мм3.8 м/с2 %
    09:00Ясно и безоблачно+19°C75 %753 мм4.2 м/с2 %
    12:00Практически безоблачно+22°C62 %754 мм5.1 м/с3 %
    15:00Облачно с прояснениями+23°C53 %754 мм5.4 м/с26 %
    18:00Практически безоблачно+23°C50 %754 мм5.3 м/с27 %
    21:00Ясно и безоблачно+18°C54 %755 мм5.5 м/с2 %
  • 24мая
    Пятница
    +9°
    +22°
    Ясно и безоблачно
    ВремяПогодаТемператураВлажностьДавлениеВетер, м/сВероятность осадков
    00:00Ясно и безоблачно+15°C54 %756 мм5.0 м/с2 %
    03:00Ясно и безоблачно+12°C60 %757 мм4.8 м/с2 %
    06:00Ясно и безоблачно+11°C60 %757 мм4.8 м/с2 %
    09:00Ясно и безоблачно+15°C53 %758 мм4.7 м/с2 %
    12:00Ясно и безоблачно+19°C46 %758 мм4.7 м/с2 %
    15:00Ясно и безоблачно+21°C41 %758 мм4.8 м/с2 %
    18:00Ясно и безоблачно+21°C43 %757 мм4.5 м/с2 %
    21:00Ясно и безоблачно+16°C59 %757 мм3.3 м/с2 %
  • 25мая
    Суббота
    +10°
    +23°
    Ясно и безоблачно
    ВремяПогодаТемператураВлажностьДавлениеВетер, м/сВероятность осадков
    00:00Ясно и безоблачно+13°C65 %757 мм3.5 м/с2 %
    03:00Ясно и безоблачно+11°C63 %757 мм3.7 м/с2 %
    06:00Ясно и безоблачно+11°C59 %757 мм3.4 м/с2 %
    09:00Ясно и безоблачно+16°C48 %757 мм3.3 м/с2 %
    12:00Ясно и безоблачно+22°C39 %757 мм3.6 м/с2 %
    15:00Ясно и безоблачно+22°C35 %756 мм3.0 м/с2 %
    18:00Ясно и безоблачно+22°C35 %755 мм3.2 м/с2 %
    21:00Ясно и безоблачно+16°C64 %755 мм2.6 м/с2 %
  • 26мая
    Воскресенье
    +10°
    +24°
    Ясно и безоблачно
    ВремяПогодаТемператураВлажностьДавлениеВетер, м/сВероятность осадков
    00:00Облачно с прояснениями+12°C74 %755 мм2.5 м/с2 %
    03:00Облачно с прояснениями+10°C79 %754 мм2.2 м/с2 %
    06:00Ясно и безоблачно+11°C79 %754 мм1.5 м/с2 %
    09:00Облачно с прояснениями+18°C61 %755 мм0.9 м/с2 %
    12:00Облачно с прояснениями+22°C37 %755 мм1.1 м/с2 %
    15:00Ясно и безоблачно+24°C36 %754 мм1.0 м/с2 %
    18:00Ясно и безоблачно+24°C36 %753 мм1.9 м/с4 %
    21:00Ясно и безоблачно+17°C65 %754 мм2.6 м/с2 %
Мы используем cookies
Соглашаюсь